Touchet, Washington
Current Conditions -  °F | °C
As of 10:53 PM on Friday 24 Oct 2014 (Local Time) from KALW Reporting Station
Moderate Fog Moderate Fog  
Wind Chill: 50°   Ceiling: 100
Heat Index: 50°   Visibility: 0mi
Dew Point: 49°   Wind: 9mph
Humidity: 96%   Direction: 190°S
Pressure: 29.85"   Gusts: NA
Location:  46.04°N, 118.67°W
Report Text: KALW 250553Z AUTO 19008KT M1/4SM R20/1000V1400FT FG VV001 10/09 A2985 RMK AO2 SLP110 60002 T01000094 10122 20100 56019
Loading
Personal Weather Stations






























Interactive Weather Map
Tropical Storm Tracking
New forecast layout! Learn more

10-Day Weather Forecast

Advertisements
Track Severe Weather on mobile